Time;durP1;ratioP1;P1;durP2;ratioP2;P2;SDS_P1;SDS_P2;PMS_P1;PMS_P2;Temp;Humidity;BMP_temperature;BMP_pressure;BME280_temperature;BME280_humidity;BME280_pressure;Samples;Min_cycle;Max_cycle;Signal;HPM_P1;HPM_P2
2022/11/30 00:00:59;;;;;;;38.90;22.63;;;;;;;4.21;100.00;101030.59;5088431;28;20093;-70
2022/11/30 00:03:24;;;;;;;43.95;22.58;;;;;;;4.10;100.00;101015.19;5091913;28;20426;-70
2022/11/30 00:05:50;;;;;;;38.63;20.95;;;;;;;4.17;100.00;101026.38;5094182;28;20024;-70
2022/11/30 00:08:16;;;;;;;35.80;20.58;;;;;;;4.15;100.00;101018.47;5086814;28;20028;-70
2022/11/30 00:10:42;;;;;;;37.50;22.17;;;;;;;4.03;100.00;100997.84;5089637;28;20095;-70
2022/11/30 00:13:08;;;;;;;37.63;21.05;;;;;;;4.16;100.00;101012.22;5092922;28;20028;-70
2022/11/30 00:15:34;;;;;;;38.08;22.48;;;;;;;4.20;100.00;101026.22;5092060;28;20020;-70
2022/11/30 00:18:00;;;;;;;33.58;20.92;;;;;;;4.09;100.00;101007.31;5093455;28;20024;-70
2022/11/30 00:20:28;;;;;;;38.92;19.98;;;;;;;4.19;100.00;101024.47;5093544;28;20026;-70
2022/11/30 00:22:55;;;;;;;32.13;19.90;;;;;;;4.22;100.00;101024.31;5090869;28;20031;-70
2022/11/30 00:25:21;;;;;;;36.63;20.58;;;;;;;4.27;100.00;101023.19;5093395;28;20027;-70
2022/11/30 00:27:46;;;;;;;40.05;20.75;;;;;;;4.21;99.42;101023.47;5091197;28;20039;-70
2022/11/30 00:30:12;;;;;;;38.40;20.95;;;;;;;4.19;99.62;101014.72;5090750;28;20586;-70
2022/11/30 00:32:38;;;;;;;32.53;18.92;;;;;;;4.18;99.71;101012.16;5091766;28;20036;-70
2022/11/30 00:35:03;;;;;;;33.03;18.98;;;;;;;4.19;99.68;101009.41;5102797;28;20032;-70
2022/11/30 00:37:29;;;;;;;34.45;20.27;;;;;;;4.17;99.44;101015.75;5110063;28;20387;-70
2022/11/30 00:39:54;;;;;;;34.35;18.98;;;;;;;4.18;99.89;101014.81;5111692;28;20148;-70
2022/11/30 00:42:19;;;;;;;39.60;19.98;;;;;;;4.18;99.86;101012.16;5110900;28;20042;-70
2022/11/30 00:44:45;;;;;;;38.50;19.98;;;;;;;4.13;99.51;101007.06;5109731;28;20022;-70
2022/11/30 00:47:10;;;;;;;39.03;21.13;;;;;;;4.19;99.36;101008.56;5111972;28;20024;-70
2022/11/30 00:49:36;;;;;;;34.85;20.00;;;;;;;4.20;99.32;101003.16;5111735;28;20080;-70
2022/11/30 00:52:02;;;;;;;37.83;21.42;;;;;;;4.18;98.87;100999.75;5112209;28;20143;-70
2022/11/30 00:54:27;;;;;;;32.75;19.58;;;;;;;4.23;98.98;101003.00;5110107;28;20031;-70
2022/11/30 00:56:53;;;;;;;35.10;21.13;;;;;;;4.12;98.93;100994.75;5111396;28;20043;-70
2022/11/30 00:59:18;;;;;;;37.08;20.83;;;;;;;4.09;98.89;100986.06;5109819;28;20035;-70
2022/11/30 01:01:44;;;;;;;33.42;18.65;;;;;;;4.15;98.69;101002.56;5109511;28;20042;-70
2022/11/30 01:04:09;;;;;;;35.35;20.42;;;;;;;4.18;98.53;101007.72;5097981;28;20028;-70
2022/11/30 01:06:36;;;;;;;36.40;20.50;;;;;;;4.21;98.19;101007.56;5092731;28;20052;-70
2022/11/30 01:09:02;;;;;;;36.40;21.40;;;;;;;4.20;98.06;101011.13;5106769;28;20098;-70
2022/11/30 01:11:29;;;;;;;39.20;21.30;;;;;;;4.11;98.25;100995.69;5112321;28;20035;-70
2022/11/30 01:13:57;;;;;;;36.15;20.95;;;;;;;4.19;98.29;101004.09;5106026;27;20032;-70
2022/11/30 01:16:26;;;;;;;33.60;20.35;;;;;;;4.05;98.13;100987.16;5092669;28;20071;-70
2022/11/30 01:18:52;;;;;;;36.30;20.95;;;;;;;4.20;98.05;101011.13;5091056;28;20050;-70
2022/11/30 01:21:22;;;;;;;35.28;19.40;;;;;;;4.21;98.22;101023.47;5097555;28;20031;-74
2022/11/30 01:23:48;;;;;;;34.85;20.50;;;;;;;4.23;98.21;101020.75;5082893;28;20029;-74
2022/11/30 01:26:15;;;;;;;33.55;20.17;;;;;;;4.24;98.18;101018.03;5110360;28;20042;-70
2022/11/30 01:28:42;;;;;;;38.35;20.25;;;;;;;4.24;98.16;101009.19;5110021;28;20038;-70
2022/11/30 01:31:11;;;;;;;36.05;21.50;;;;;;;4.22;98.22;101000.44;5111706;28;20027;-70
2022/11/30 01:33:36;;;;;;;38.78;20.23;;;;;;;4.11;97.87;100982.41;5102010;28;20023;-74
2022/11/30 01:36:05;;;;;;;34.95;20.15;;;;;;;4.22;97.78;100995.13;5111754;28;20030;-70
2022/11/30 01:38:36;;;;;;;35.90;19.98;;;;;;;4.16;97.34;100985.69;5110184;27;20035;-70
2022/11/30 01:41:03;;;;;;;37.95;19.33;;;;;;;4.21;97.65;100993.41;5099710;28;20044;-70
2022/11/30 01:43:51;;;;;;;36.30;20.65;;;;;;;4.23;97.10;100996.88;5091692;28;20111;-70
2022/11/30 01:46:31;;;;;;;35.55;21.13;;;;;;;4.22;97.41;100992.47;5105107;28;20123;-70
2022/11/30 01:49:09;;;;;;;38.90;21.38;;;;;;;4.23;96.61;101002.16;5105028;28;20035;-70
2022/11/30 01:52:00;;;;;;;41.25;21.77;;;;;;;4.21;96.93;100991.63;5090925;28;20043;-70
2022/11/30 01:54:31;;;;;;;37.47;20.13;;;;;;;4.22;97.57;100989.81;5089977;28;20046;-70
2022/11/30 01:57:05;;;;;;;34.55;20.17;;;;;;;4.10;97.29;100966.56;5091068;28;20055;-70
2022/11/30 01:59:30;;;;;;;37.42;20.02;;;;;;;4.22;97.59;100988.03;5099925;28;20406;-70
2022/11/30 02:01:56;;;;;;;38.65;21.15;;;;;;;4.18;97.40;100977.63;5110953;28;20048;-70
2022/11/30 02:04:30;;;;;;;35.72;19.45;;;;;;;4.22;97.57;100990.69;5105874;28;20038;-70
2022/11/30 02:06:57;;;;;;;33.45;20.05;;;;;;;4.20;97.41;100987.22;5100668;28;20391;-70
2022/11/30 02:09:25;;;;;;;36.58;19.17;;;;;;;4.18;97.39;100982.94;5092824;28;20089;-73
2022/11/30 02:11:51;;;;;;;36.30;19.50;;;;;;;4.25;97.53;100994.97;5092173;28;20032;-74
2022/11/30 02:14:46;;;;;;;33.05;18.65;;;;;;;4.10;97.10;100974.53;5095038;28;20034;-74
2022/11/30 02:17:39;;;;;;;34.30;18.90;;;;;;;4.28;97.05;101008.09;5100952;28;20110;-74
2022/11/30 02:20:29;;;;;;;29.60;17.17;;;;;;;4.28;96.99;101001.00;5107297;28;20372;-73
2022/11/30 02:23:13;;;;;;;34.38;19.08;;;;;;;4.30;96.39;101006.22;5071727;28;20462;-74
2022/11/30 02:25:51;;;;;;;35.23;19.73;;;;;;;4.29;96.17;101008.00;5071844;28;20028;-74
2022/11/30 02:28:20;;;;;;;32.38;18.70;;;;;;;4.27;95.93;101009.03;5075420;28;20722;-74
2022/11/30 02:30:49;;;;;;;35.95;18.80;;;;;;;4.20;95.76;100994.38;5111361;28;20023;-70
2022/11/30 02:33:19;;;;;;;33.30;18.08;;;;;;;4.27;95.57;101020.53;5103325;28;20473;-70
2022/11/30 02:35:49;;;;;;;32.20;18.00;;;;;;;4.19;95.08;101006.75;5090323;28;20028;-70
2022/11/30 02:38:20;;;;;;;36.15;18.73;;;;;;;4.13;95.14;100985.00;5091396;28;20058;-74
2022/11/30 02:40:45;;;;;;;35.17;19.42;;;;;;;4.28;95.20;101005.44;5099206;28;20044;-74
2022/11/30 02:43:11;;;;;;;33.35;18.80;;;;;;;4.25;94.94;101002.94;5111610;28;20025;-74
2022/11/30 02:46:05;;;;;;;31.98;17.60;;;;;;;4.29;94.61;101020.44;5097486;28;20116;-73
2022/11/30 02:48:45;;;;;;;28.70;17.48;;;;;;;4.29;94.44;101010.66;5096090;28;20094;-74
2022/11/30 02:51:17;;;;;;;32.35;17.55;;;;;;;4.29;94.47;101021.28;5103222;28;20593;-74
2022/11/30 02:53:44;;;;;;;30.88;16.92;;;;;;;4.30;94.34;101022.16;5114135;28;20032;-74
2022/11/30 02:56:09;;;;;;;29.75;17.75;;;;;;;4.19;94.27;101005.91;5116034;28;20024;-74
2022/11/30 02:58:35;;;;;;;28.80;16.60;;;;;;;4.14;94.28;100992.00;5112547;28;20074;-74
2022/11/30 03:01:00;;;;;;;28.70;16.70;;;;;;;4.19;94.36;101004.09;5100479;28;20015;-74
2022/11/30 03:03:26;;;;;;;29.58;17.17;;;;;;;4.24;93.66;101010.06;5115314;28;20049;-70
2022/11/30 03:05:51;;;;;;;27.40;16.95;;;;;;;4.28;93.43;101002.78;5113204;28;20030;-70
2022/11/30 03:08:16;;;;;;;29.95;16.73;;;;;;;4.23;93.69;101016.28;5096077;28;20039;-70
2022/11/30 03:10:42;;;;;;;31.80;16.67;;;;;;;4.26;93.52;101015.28;5095484;28;20012;-70
2022/11/30 03:13:07;;;;;;;30.77;17.17;;;;;;;4.27;94.02;101014.34;5094412;28;20031;-70
2022/11/30 03:15:34;;;;;;;29.83;17.38;;;;;;;4.16;93.90;100998.13;5110017;28;20055;-70
2022/11/30 03:18:03;;;;;;;25.40;16.08;;;;;;;4.27;94.13;101017.88;5111542;28;20024;-70
2022/11/30 03:20:29;;;;;;;34.03;16.90;;;;;;;4.24;94.17;101011.84;5108085;28;20032;-70
2022/11/30 03:22:59;;;;;;;26.45;16.23;;;;;;;4.29;94.22;101023.94;5101530;28;20035;-70
2022/11/30 03:25:25;;;;;;;30.77;17.15;;;;;;;4.31;93.37;101024.72;5094248;28;20081;-70
2022/11/30 03:27:50;;;;;;;29.40;15.85;;;;;;;4.31;93.43;101034.47;5093898;28;20032;-70
2022/11/30 03:30:16;;;;;;;31.65;17.08;;;;;;;4.18;93.66;101010.38;5108326;28;20023;-70
2022/11/30 03:32:41;;;;;;;27.55;15.43;;;;;;;4.22;93.92;101014.56;5103227;27;20044;-70
2022/11/30 03:35:07;;;;;;;28.75;16.25;;;;;;;4.17;94.82;101003.34;5092489;28;20539;-70
2022/11/30 03:37:32;;;;;;;29.13;16.95;;;;;;;4.12;95.26;100991.22;5094613;28;20080;-70
2022/11/30 03:39:58;;;;;;;31.20;17.08;;;;;;;4.31;95.48;101016.78;5093335;28;20040;-70
2022/11/30 03:42:23;;;;;;;27.33;16.58;;;;;;;4.33;95.89;101029.97;5099701;28;20491;-70
2022/11/30 03:44:49;;;;;;;28.85;16.33;;;;;;;4.31;95.98;101024.72;5113709;28;20528;-70
2022/11/30 03:47:14;;;;;;;28.08;15.18;;;;;;;4.28;96.56;101024.88;5113989;28;20023;-69
2022/11/30 03:49:40;;;;;;;30.08;15.73;;;;;;;4.27;97.45;101017.00;5113541;28;20035;-69
2022/11/30 03:52:05;;;;;;;25.13;15.68;;;;;;;4.20;97.53;101012.94;5106990;28;20024;-69
2022/11/30 03:54:30;;;;;;;28.02;16.83;;;;;;;4.29;97.90;101023.09;5099081;28;20376;-73
2022/11/30 03:56:56;;;;;;;27.20;15.43;;;;;;;4.31;97.90;101029.19;5103099;28;20047;-73
2022/11/30 03:59:21;;;;;;;25.63;15.70;;;;;;;4.28;97.88;101030.19;5101225;28;20020;-73
2022/11/30 04:01:47;;;;;;;27.45;15.82;;;;;;;4.21;97.76;101012.00;5114360;28;20410;-73
2022/11/30 04:04:12;;;;;;;25.88;15.68;;;;;;;4.24;97.90;101017.16;5110764;28;20039;-69
2022/11/30 04:06:39;;;;;;;27.98;16.15;;;;;;;4.15;97.86;101015.81;5113066;28;20036;-69
2022/11/30 04:09:05;;;;;;;25.73;16.67;;;;;;;4.21;98.26;101022.63;5104282;28;20032;-69
2022/11/30 04:11:30;;;;;;;33.17;16.70;;;;;;;4.28;98.21;101022.22;5093036;28;20055;-69
2022/11/30 04:13:56;;;;;;;25.02;14.70;;;;;;;4.31;97.81;101023.88;5109630;28;20027;-69
2022/11/30 04:16:21;;;;;;;27.33;16.77;;;;;;;4.23;97.44;101015.44;5113276;28;20031;-69
2022/11/30 04:18:47;;;;;;;26.95;16.05;;;;;;;4.23;97.11;101010.97;5113038;28;20031;-70
2022/11/30 04:21:12;;;;;;;25.98;15.60;;;;;;;4.20;97.23;101016.44;5112955;28;20043;-70
2022/11/30 04:23:39;;;;;;;28.38;15.85;;;;;;;4.22;96.97;101019.00;5097194;28;20023;-70
2022/11/30 04:26:07;;;;;;;29.83;16.48;;;;;;;4.22;97.00;101011.91;5092739;28;20085;-69
2022/11/30 04:28:33;;;;;;;28.38;16.70;;;;;;;4.23;96.99;101021.59;5093725;28;20038;-70
2022/11/30 04:31:01;;;;;;;25.83;14.77;;;;;;;4.13;96.85;101003.56;5092516;28;20020;-74
2022/11/30 04:33:28;;;;;;;24.55;14.95;;;;;;;4.13;97.08;101004.41;5092722;28;20047;-73
2022/11/30 04:35:55;;;;;;;27.50;16.45;;;;;;;4.25;96.80;101021.50;5092847;28;20069;-74
2022/11/30 04:38:22;;;;;;;29.35;15.30;;;;;;;4.24;97.18;101017.16;5092452;28;20038;-74
2022/11/30 04:40:47;;;;;;;27.52;15.25;;;;;;;4.16;97.38;101014.88;5099964;28;20044;-73
2022/11/30 04:43:13;;;;;;;28.95;15.57;;;;;;;4.29;96.93;101031.91;5111232;28;20034;-73
2022/11/30 04:45:40;;;;;;;26.15;16.17;;;;;;;4.22;96.63;101025.19;5101239;28;20073;-73
2022/11/30 04:48:05;;;;;;;28.20;16.05;;;;;;;4.24;96.86;101030.44;5092633;28;20483;-74
2022/11/30 04:50:31;;;;;;;26.38;15.77;;;;;;;4.25;96.48;101032.13;5096579;28;20020;-74
2022/11/30 04:52:56;;;;;;;31.95;16.10;;;;;;;4.20;96.43;101027.06;5095201;28;20026;-74
2022/11/30 04:55:22;;;;;;;29.92;16.33;;;;;;;4.18;96.68;101018.31;5099631;28;20028;-74
2022/11/30 04:57:48;;;;;;;30.63;16.92;;;;;;;4.23;96.81;101023.41;5096177;28;20356;-74
2022/11/30 05:00:16;;;;;;;29.13;15.30;;;;;;;4.24;96.98;101025.13;5093494;28;20115;-73
2022/11/30 05:02:42;;;;;;;28.10;15.93;;;;;;;4.16;96.96;101012.22;5093103;28;20036;-73
2022/11/30 05:05:08;;;;;;;27.77;15.45;;;;;;;4.23;96.96;101020.75;5091207;28;20044;-73
2022/11/30 05:07:34;;;;;;;27.17;15.07;;;;;;;4.13;96.77;101006.22;5096416;28;20364;-70
2022/11/30 05:09:59;;;;;;;29.77;16.52;;;;;;;4.21;96.54;101027.94;5096911;28;20147;-69
2022/11/30 05:12:25;;;;;;;25.83;16.00;;;;;;;4.19;96.37;101021.81;5103420;28;20035;-70
2022/11/30 05:14:50;;;;;;;28.17;16.40;;;;;;;4.16;95.90;101027.31;5101015;28;20388;-70
2022/11/30 05:17:15;;;;;;;29.67;16.73;;;;;;;4.06;95.90;101015.41;5109988;28;20034;-70
2022/11/30 05:19:41;;;;;;;27.38;15.63;;;;;;;4.17;96.19;101029.03;5105610;28;20039;-70
2022/11/30 05:22:06;;;;;;;27.83;15.73;;;;;;;4.13;95.63;101025.66;5090303;28;20044;-69
2022/11/30 05:24:32;;;;;;;24.55;14.82;;;;;;;4.20;95.27;101034.19;5089818;28;20032;-70
2022/11/30 05:26:58;;;;;;;30.23;16.52;;;;;;;4.06;95.45;101013.63;5091046;28;20415;-70
2022/11/30 05:29:24;;;;;;;28.40;16.02;;;;;;;4.15;95.47;101014.97;5089452;28;20423;-70
2022/11/30 05:31:49;;;;;;;28.27;15.77;;;;;;;4.19;95.25;101033.31;5091151;28;20034;-70
2022/11/30 05:34:15;;;;;;;26.30;15.32;;;;;;;4.21;94.84;101036.75;5091088;28;20112;-70
2022/11/30 05:36:40;;;;;;;26.15;16.05;;;;;;;4.15;95.38;101023.78;5093673;28;20034;-74
2022/11/30 05:39:06;;;;;;;29.98;15.95;;;;;;;4.18;95.19;101026.28;5087296;28;20049;-74
2022/11/30 05:41:31;;;;;;;25.88;15.13;;;;;;;4.18;94.89;101028.06;5098757;28;20066;-74
2022/11/30 05:43:57;;;;;;;27.13;16.20;;;;;;;4.20;95.34;101031.53;5091285;28;20020;-74
2022/11/30 05:46:22;;;;;;;25.90;15.40;;;;;;;4.09;94.74;101005.50;5099222;28;20026;-74
2022/11/30 05:48:48;;;;;;;28.52;15.50;;;;;;;4.13;94.90;101008.88;5110151;28;20039;-74
2022/11/30 05:51:15;;;;;;;25.75;15.63;;;;;;;4.12;95.14;101008.00;5092284;28;20032;-73
2022/11/30 05:53:42;;;;;;;28.40;16.67;;;;;;;4.10;95.57;101015.19;5092165;28;20027;-73
2022/11/30 05:56:11;;;;;;;29.10;15.57;;;;;;;4.16;95.19;101029.97;5092631;28;20020;-73
2022/11/30 05:58:37;;;;;;;27.17;16.73;;;;;;;4.03;94.80;101013.78;5109581;28;20413;-74
2022/11/30 06:01:03;;;;;;;29.52;16.02;;;;;;;4.16;94.80;101044.09;5090597;28;20016;-74
2022/11/30 06:03:29;;;;;;;29.85;16.77;;;;;;;4.16;94.84;101045.91;5091323;28;20034;-73
2022/11/30 06:05:55;;;;;;;28.75;16.73;;;;;;;4.04;94.95;101020.81;5090211;28;20112;-74
2022/11/30 06:08:20;;;;;;;25.00;15.02;;;;;;;4.05;95.14;101029.63;5099231;28;20437;-74
2022/11/30 06:10:46;;;;;;;31.13;16.63;;;;;;;4.14;95.43;101039.78;5112529;28;20023;-73
2022/11/30 06:13:12;;;;;;;31.83;16.85;;;;;;;4.11;94.85;101039.94;5112244;28;20475;-73
2022/11/30 06:15:41;;;;;;;27.20;16.60;;;;;;;4.08;94.46;101038.31;5094946;28;20035;-73
2022/11/30 06:18:09;;;;;;;28.83;16.90;;;;;;;4.13;94.58;101041.56;5105040;28;20098;-73
2022/11/30 06:20:35;;;;;;;31.05;16.42;;;;;;;4.17;94.48;101047.59;5111692;28;20038;-73
2022/11/30 06:23:01;;;;;;;27.27;15.80;;;;;;;3.98;94.55;101014.94;5110864;28;20028;-73
2022/11/30 06:25:27;;;;;;;27.52;15.35;;;;;;;4.10;93.97;101040.88;5112266;28;20023;-73
2022/11/30 06:27:53;;;;;;;29.20;16.15;;;;;;;4.11;93.98;101039.94;5112433;28;20031;-73
2022/11/30 06:30:18;;;;;;;26.73;15.80;;;;;;;4.03;93.84;101023.56;5108812;28;20023;-74
2022/11/30 06:32:48;;;;;;;26.98;15.82;;;;;;;4.09;94.07;101033.84;5105390;28;20031;-74
2022/11/30 06:35:14;;;;;;;27.98;14.77;;;;;;;4.16;93.53;101036.13;5090626;28;20563;-74
2022/11/30 06:37:40;;;;;;;26.35;15.38;;;;;;;4.18;93.14;101049.31;5085848;28;20151;-74
2022/11/30 06:40:06;;;;;;;27.55;15.07;;;;;;;4.13;93.39;101040.75;5090628;28;20044;-75
2022/11/30 06:42:34;;;;;;;27.27;15.32;;;;;;;4.11;92.89;101032.84;5091871;28;20090;-75
2022/11/30 06:44:59;;;;;;;27.98;16.02;;;;;;;4.01;92.85;101014.81;5089806;28;20039;-75
2022/11/30 06:47:26;;;;;;;27.27;15.45;;;;;;;4.09;93.09;101028.53;5088571;28;20024;-74
2022/11/30 06:49:51;;;;;;;26.65;15.15;;;;;;;4.19;92.50;101051.03;5086406;28;20095;-74
2022/11/30 06:52:17;;;;;;;25.55;15.52;;;;;;;4.10;92.54;101033.75;5089624;28;20039;-74
2022/11/30 06:54:43;;;;;;;27.08;16.27;;;;;;;4.22;92.33;101050.88;5089697;28;20027;-74
2022/11/30 06:57:08;;;;;;;26.45;14.23;;;;;;;4.17;91.97;101047.59;5091225;28;20134;-74
2022/11/30 06:59:36;;;;;;;31.17;17.13;;;;;;;4.18;91.87;101055.50;5091801;28;20410;-73
2022/11/30 07:02:02;;;;;;;24.77;14.75;;;;;;;3.91;91.39;101008.22;5089969;28;20384;-73
2022/11/30 07:04:28;;;;;;;27.52;14.82;;;;;;;4.21;91.47;101050.03;5088205;28;20099;-73
2022/11/30 07:06:53;;;;;;;27.17;14.85;;;;;;;4.11;91.26;101037.28;5090238;28;20111;-73
2022/11/30 07:09:19;;;;;;;24.77;15.27;;;;;;;4.17;91.35;101043.16;5092589;28;20048;-74
2022/11/30 07:11:45;;;;;;;28.20;15.23;;;;;;;4.25;91.25;101053.38;5090336;28;20479;-73
2022/11/30 07:14:10;;;;;;;23.05;14.68;;;;;;;4.16;91.58;101035.28;5090632;28;20036;-73
2022/11/30 07:16:36;;;;;;;26.42;14.98;;;;;;;4.20;91.32;101052.75;5090267;28;20115;-73
2022/11/30 07:19:01;;;;;;;28.80;15.95;;;;;;;4.10;91.22;101036.41;5089092;28;20028;-73
2022/11/30 07:21:27;;;;;;;25.25;14.15;;;;;;;4.25;90.86;101054.25;5091574;28;20077;-73
2022/11/30 07:26:36;;;;;;;28.70;15.77;;;;;;;4.26;90.52;101049.81;5091282;28;20518;-74
2022/11/30 07:29:04;;;;;;;26.98;14.48;;;;;;;4.17;90.20;101024.59;5092459;28;20032;-73
2022/11/30 07:31:33;;;;;;;25.45;14.35;;;;;;;4.34;89.52;101048.47;5088926;28;20024;-73
2022/11/30 07:34:04;;;;;;;23.85;13.80;;;;;;;4.23;89.99;101031.38;5096113;28;20380;-74
2022/11/30 07:36:30;;;;;;;25.15;14.57;;;;;;;4.20;89.55;101024.41;5090242;28;20032;-73
2022/11/30 07:38:56;;;;;;;26.67;14.30;;;;;;;4.34;89.56;101050.25;5091467;28;20039;-70
2022/11/30 07:41:21;;;;;;;25.42;13.35;;;;;;;4.32;89.74;101045.03;5089227;28;20053;-70
2022/11/30 07:43:47;;;;;;;21.63;13.05;;;;;;;4.21;89.76;101019.97;5090176;28;20434;-70
2022/11/30 07:46:13;;;;;;;25.08;13.85;;;;;;;4.32;89.43;101049.50;5088565;28;20146;-70
2022/11/30 07:48:39;;;;;;;25.23;14.50;;;;;;;4.33;89.69;101049.38;5092159;28;20039;-73
2022/11/30 07:51:06;;;;;;;24.75;14.30;;;;;;;4.31;89.45;101045.97;5093219;28;20035;-70
2022/11/30 07:53:32;;;;;;;27.58;14.38;;;;;;;4.34;89.46;101061.75;5092893;28;20466;-73
2022/11/30 07:56:13;;;;;;;29.65;14.95;;;;;;;4.23;89.34;101044.66;5093578;28;20036;-73
2022/11/30 07:58:39;;;;;;;26.13;13.52;;;;;;;4.27;89.42;101032.94;5093573;28;20038;-73
2022/11/30 08:01:11;;;;;;;22.58;13.10;;;;;;;4.38;88.64;101039.41;5093155;28;20016;-74
2022/11/30 08:03:37;;;;;;;25.42;13.68;;;;;;;4.42;89.00;101043.63;5093313;28;20513;-74
2022/11/30 08:06:07;;;;;;;23.35;14.63;;;;;;;4.43;89.07;101031.22;5091963;28;20024;-73
2022/11/30 08:08:38;;;;;;;23.20;13.50;;;;;;;4.20;88.66;101010.28;5093834;28;20093;-73
2022/11/30 08:11:06;;;;;;;23.08;14.13;;;;;;;4.34;87.55;101037.84;5092144;28;20030;-73
2022/11/30 08:13:32;;;;;;;21.48;13.10;;;;;;;4.45;87.59;101053.25;5092603;28;20028;-73
2022/11/30 08:16:05;;;;;;;23.35;13.38;;;;;;;4.39;87.28;101045.59;5092371;28;20050;-73
2022/11/30 08:18:30;;;;;;;22.23;13.43;;;;;;;4.51;87.45;101060.88;5092216;28;20357;-73
2022/11/30 08:20:58;;;;;;;21.80;13.70;;;;;;;4.47;87.23;101061.97;5093664;28;20046;-73
2022/11/30 08:23:24;;;;;;;24.15;13.50;;;;;;;4.54;86.57;101069.56;5094157;28;20024;-73
2022/11/30 08:25:50;;;;;;;23.25;12.75;;;;;;;4.57;86.61;101064.09;5092527;28;20035;-74
2022/11/30 08:28:15;;;;;;;19.75;12.32;;;;;;;4.57;86.55;101065.88;5092833;28;20020;-74
2022/11/30 08:30:40;;;;;;;21.67;12.30;;;;;;;4.68;85.80;101076.84;5091988;28;20495;-73
2022/11/30 08:33:06;;;;;;;21.95;12.65;;;;;;;4.53;86.15;101035.09;5091285;28;20028;-73
2022/11/30 08:35:31;;;;;;;22.92;13.57;;;;;;;4.69;85.86;101068.78;5091730;28;20031;-73
2022/11/30 08:37:57;;;;;;;18.75;11.38;;;;;;;4.73;85.49;101064.16;5093074;28;20039;-74
2022/11/30 08:40:22;;;;;;;28.20;13.07;;;;;;;4.69;85.56;101052.84;5092559;28;20040;-73
2022/11/30 08:42:48;;;;;;;20.90;12.88;;;;;;;4.75;85.37;101068.44;5092543;28;20098;-73
2022/11/30 08:45:13;;;;;;;20.42;11.43;;;;;;;4.63;84.92;101047.84;5094509;28;20115;-70
2022/11/30 08:47:38;;;;;;;17.77;11.48;;;;;;;4.71;83.86;101072.19;5091705;28;20032;-73
2022/11/30 08:50:04;;;;;;;18.35;11.90;;;;;;;4.65;83.94;101059.22;5092416;28;20119;-73
2022/11/30 08:52:30;;;;;;;21.13;12.25;;;;;;;4.74;84.41;101068.50;5092427;28;20031;-73
2022/11/30 08:54:55;;;;;;;17.55;10.20;;;;;;;4.80;83.98;101080.66;5094395;28;20027;-73
2022/11/30 08:57:21;;;;;;;17.92;11.02;;;;;;;4.67;82.84;101045.88;5094544;28;20722;-73
2022/11/30 08:59:47;;;;;;;22.02;11.23;;;;;;;4.75;82.98;101060.47;5092425;28;20036;-73
2022/11/30 09:02:17;;;;;;;20.80;10.52;;;;;;;4.67;83.30;101043.22;5093284;28;20390;-73
2022/11/30 09:04:42;;;;;;;18.65;11.10;;;;;;;4.87;83.23;101060.78;5086231;28;20035;-70
2022/11/30 09:07:08;;;;;;;18.08;11.02;;;;;;;4.80;83.73;101032.81;5093782;28;20040;-70
2022/11/30 09:09:35;;;;;;;15.95;10.18;;;;;;;4.89;83.79;101045.59;5090496;28;20399;-70
2022/11/30 09:12:01;;;;;;;18.90;10.75;;;;;;;4.96;83.48;101057.66;5092128;28;20106;-74
2022/11/30 09:14:26;;;;;;;18.35;10.75;;;;;;;5.02;83.54;101059.94;5090452;28;20548;-73
2022/11/30 09:16:53;;;;;;;19.00;10.85;;;;;;;5.05;83.69;101043.84;5090123;28;20115;-74
2022/11/30 09:19:18;;;;;;;16.58;10.13;;;;;;;5.11;83.30;101054.16;5090556;28;20036;-73
2022/11/30 09:21:44;;;;;;;18.80;11.07;;;;;;;5.12;83.48;101056.72;5091796;28;21053;-73
2022/11/30 09:24:09;;;;;;;19.00;9.80;;;;;;;5.13;83.38;101062.91;5090548;28;20063;-74
2022/11/30 09:26:35;;;;;;;20.10;11.70;;;;;;;4.88;83.30;101009.34;5092174;28;20032;-73
2022/11/30 09:29:00;;;;;;;18.60;11.05;;;;;;;5.14;82.92;101049.53;5089811;28;20059;-70
2022/11/30 09:31:26;;;;;;;20.38;11.25;;;;;;;5.01;83.40;101035.19;5090565;28;20476;-70
2022/11/30 09:33:55;;;;;;;20.55;11.27;;;;;;;5.20;83.34;101058.97;5090506;28;20496;-70
2022/11/30 09:36:22;;;;;;;17.67;10.38;;;;;;;5.21;83.36;101064.22;5090602;28;20027;-70
2022/11/30 09:38:48;;;;;;;17.13;10.55;;;;;;;5.18;83.35;101055.53;5090411;28;20070;-70
2022/11/30 09:41:37;;;;;;;16.90;10.48;;;;;;;5.26;83.09;101069.28;5090163;28;20061;-73
2022/11/30 09:44:09;;;;;;;19.23;10.23;;;;;;;5.41;82.22;101065.78;5091708;28;20028;-74
2022/11/30 09:46:43;;;;;;;20.52;11.77;;;;;;;5.38;82.72;101061.50;5091299;28;20024;-73
2022/11/30 09:49:11;;;;;;;;;;;;;;;5.37;82.61;101064.22;5092152;28;20053;-73
2022/11/30 09:51:45;;;;;;;17.33;10.23;;;;;;;5.38;82.66;101058.81;5091660;28;19918;-73
2022/11/30 09:54:12;;;;;;;;;;;;;;;5.40;83.30;101058.75;5090899;28;20032;-73
2022/11/30 09:56:39;;;;;;;16.77;11.13;;;;;;;5.38;83.31;101034.88;5090978;28;20371;-74
2022/11/30 09:59:16;;;;;;;16.50;10.23;;;;;;;5.54;82.16;101050.84;5089984;28;20412;-73
2022/11/30 10:01:43;;;;;;;16.40;10.23;;;;;;;5.55;81.95;101049.94;5089972;28;20384;-70
2022/11/30 10:04:21;;;;;;;17.35;9.95;;;;;;;5.49;82.19;101037.84;5090051;28;20024;-73
2022/11/30 10:07:15;;;;;;;21.17;11.80;;;;;;;5.45;80.96;101020.31;5091312;28;20502;-70
2022/11/30 10:09:59;;;;;;;18.17;11.60;;;;;;;5.64;80.03;101038.78;5090071;28;20028;-70
2022/11/30 10:12:32;;;;;;;20.48;10.88;;;;;;;5.60;80.34;101040.75;5089687;28;20156;-70
2022/11/30 10:15:07;;;;;;;18.33;10.45;;;;;;;5.68;79.90;101032.34;5088692;28;20031;-70
2022/11/30 10:17:51;;;;;;;18.80;10.95;;;;;;;5.59;80.76;101024.88;5088193;28;20039;-70
2022/11/30 10:21:05;;;;;;;19.08;9.82;;;;;;;5.73;80.35;101039.09;5090172;28;20341;-74
2022/11/30 10:23:30;;;;;;;17.40;10.35;;;;;;;5.76;81.00;101036.28;5028892;28;20040;-74
2022/11/30 10:26:01;;;;;;;18.73;10.35;;;;;;;5.82;81.32;101037.75;5083965;28;20044;-73
2022/11/30 10:28:48;;;;;;;19.67;11.30;;;;;;;5.80;80.81;101037.81;5091076;28;20028;-74
2022/11/30 10:31:14;;;;;;;21.58;10.48;;;;;;;5.71;79.95;101010.88;5089418;28;20031;-74
2022/11/30 10:33:47;;;;;;;17.02;10.93;;;;;;;5.88;79.64;101034.75;5088960;28;20078;-73
2022/11/30 10:36:36;;;;;;;15.98;10.20;;;;;;;5.90;79.42;101035.53;5087367;28;20388;-71
2022/11/30 10:39:06;;;;;;;18.27;11.05;;;;;;;5.94;80.37;101039.72;5085964;28;20553;-70
2022/11/30 10:41:41;;;;;;;23.48;10.65;;;;;;;5.71;80.39;100993.09;5088511;28;20407;-70
2022/11/30 10:44:29;;;;;;;18.00;11.65;;;;;;;5.93;80.53;101014.91;5087314;28;20060;-70
2022/11/30 10:47:06;;;;;;;18.27;10.55;;;;;;;5.93;81.30;101019.38;5101625;28;20028;-71
2022/11/30 10:49:33;;;;;;;18.90;11.70;;;;;;;5.87;80.66;101003.75;5088582;28;20103;-74
2022/11/30 10:52:07;;;;;;;17.23;10.52;;;;;;;5.90;80.65;101011.56;5088933;28;20560;-69
2022/11/30 10:54:34;;;;;;;17.48;10.60;;;;;;;5.73;81.17;100985.00;5088658;28;20488;-70
2022/11/30 10:57:02;;;;;;;20.33;12.23;;;;;;;5.85;82.04;101011.84;5104447;28;20059;-74
2022/11/30 10:59:48;;;;;;;22.50;14.05;;;;;;;5.88;82.11;101014.31;5088318;28;20030;-74
2022/11/30 11:02:40;;;;;;;24.63;14.13;;;;;;;5.71;82.95;100982.44;5086982;28;20051;-74
2022/11/30 11:05:14;;;;;;;22.95;12.60;;;;;;;5.79;82.60;101009.50;5088478;28;20016;-74
2022/11/30 11:08:00;;;;;;;20.65;11.52;;;;;;;5.89;82.59;101017.81;5091593;28;20145;-73
2022/11/30 11:10:46;;;;;;;19.92;11.90;;;;;;;5.88;82.42;101024.97;5092348;28;20048;-74
2022/11/30 11:13:34;;;;;;;18.67;10.82;;;;;;;5.71;82.24;100998.41;5092334;28;20031;-74
2022/11/30 11:16:00;;;;;;;20.38;11.45;;;;;;;5.86;82.52;101018.88;5089381;28;20038;-74
2022/11/30 11:18:31;;;;;;;16.08;10.48;;;;;;;5.86;81.77;101018.88;5092171;28;20494;-73
2022/11/30 11:21:03;;;;;;;16.40;10.70;;;;;;;5.88;81.94;101024.09;5092504;28;20020;-70
2022/11/30 11:23:40;;;;;;;19.80;11.77;;;;;;;5.76;81.94;101003.47;5088573;28;20556;-71
2022/11/30 11:26:16;;;;;;;18.45;10.45;;;;;;;5.81;82.48;101012.94;5092012;28;20056;-70